createdAt,value
2022-12-16T00:02:01.857Z,99337.59
2022-12-16T00:07:03.294Z,99340.91
2022-12-16T00:12:05.275Z,99349.25
2022-12-16T00:17:06.835Z,99358.41
2022-12-16T00:22:08.255Z,99364.25
2022-12-16T00:27:09.709Z,99361.75
2022-12-16T00:32:11.099Z,99364.25
2022-12-16T00:37:13.368Z,99375.06
2022-12-16T00:42:14.839Z,99380.06
2022-12-16T00:47:16.248Z,99390.06
2022-12-16T00:52:17.686Z,99408.38
2022-12-16T00:57:19.172Z,99410.03
2022-12-16T01:02:20.670Z,99419.19
2022-12-16T01:07:22.176Z,99411.72
2022-12-16T01:12:24.104Z,99414.19
2022-12-16T01:17:26.068Z,99426.69
2022-12-16T01:22:32.837Z,99435.84
2022-12-16T01:27:34.239Z,99431.69
2022-12-16T01:32:36.092Z,99430.00
2022-12-16T01:37:37.611Z,99435.84
2022-12-16T01:42:39.152Z,99440.00
2022-12-16T01:47:40.592Z,99442.50
2022-12-16T01:52:48.842Z,99442.50
2022-12-16T01:58:02.266Z,99445.78
2022-12-16T02:03:04.499Z,99440.81
2022-12-16T02:08:05.947Z,99449.13
2022-12-16T02:13:26.400Z,99453.31
2022-12-16T02:18:56.707Z,99453.31
2022-12-16T02:24:13.625Z,99457.44
2022-12-16T02:29:36.020Z,99461.63
2022-12-16T02:34:57.311Z,99456.66
2022-12-16T02:40:06.836Z,99465.00
2022-12-16T02:45:15.866Z,99470.84
2022-12-16T02:50:20.341Z,99480.81
2022-12-16T02:55:32.749Z,99493.34
2022-12-16T03:01:00.612Z,99492.50
2022-12-16T03:06:04.697Z,99490.81
2022-12-16T03:11:10.328Z,99498.31
2022-12-16T03:16:17.647Z,99496.66
2022-12-16T03:21:25.332Z,99503.31
2022-12-16T03:27:02.421Z,99509.13
2022-12-16T03:32:15.410Z,99513.28
2022-12-16T03:37:20.476Z,99508.28
2022-12-16T03:42:23.634Z,99514.97
2022-12-16T03:47:29.197Z,99519.94
2022-12-16T03:52:30.577Z,99517.47
2022-12-16T03:57:31.954Z,99524.16
2022-12-16T04:02:33.671Z,99526.63
2022-12-16T04:07:35.245Z,99543.28
2022-12-16T04:12:55.496Z,99536.63
2022-12-16T04:18:15.910Z,99542.44
2022-12-16T04:23:36.219Z,99545.78
2022-12-16T04:28:37.709Z,99550.75
2022-12-16T04:33:58.681Z,99553.25
2022-12-16T04:39:18.495Z,99562.44
2022-12-16T04:44:38.595Z,99568.19
2022-12-16T04:49:58.864Z,99568.16
2022-12-16T04:55:18.812Z,99581.47
2022-12-16T05:00:38.730Z,99586.44
2022-12-16T05:05:58.503Z,99597.25
2022-12-16T05:11:18.308Z,99603.84
2022-12-16T05:16:38.165Z,99613.84
2022-12-16T05:21:57.906Z,99632.97
2022-12-16T05:27:17.986Z,99644.59
2022-12-16T05:32:37.694Z,99661.19
2022-12-16T05:37:57.728Z,99663.66
2022-12-16T05:43:17.589Z,99667.75
2022-12-16T05:48:37.676Z,99683.53
2022-12-16T05:53:57.551Z,99691.03
2022-12-16T05:59:17.743Z,99703.50
2022-12-16T06:04:37.674Z,99710.88
2022-12-16T06:09:57.552Z,99715.75
2022-12-16T06:15:17.443Z,99721.38
2022-12-16T06:20:37.405Z,99725.31
2022-12-16T06:25:58.159Z,99728.38
2022-12-16T06:31:18.112Z,99748.06
2022-12-16T06:36:38.460Z,99758.72
2022-12-16T06:41:58.207Z,99771.00
2022-12-16T06:47:18.132Z,99779.94
2022-12-16T06:52:37.932Z,99786.41
2022-12-16T06:57:57.713Z,99802.06
2022-12-16T07:03:17.541Z,99811.84
2022-12-16T07:08:37.570Z,99821.03
2022-12-16T07:13:57.395Z,99836.75
2022-12-16T07:19:17.217Z,99841.59
2022-12-16T07:24:37.151Z,99857.28
2022-12-16T07:29:57.105Z,99859.69
2022-12-16T07:35:17.156Z,99873.69
2022-12-16T07:40:37.007Z,99883.59
2022-12-16T07:45:56.838Z,99888.56
2022-12-16T07:51:16.757Z,99896.16
2022-12-16T07:56:36.595Z,99903.78
2022-12-16T08:01:56.935Z,99918.09
2022-12-16T08:07:17.066Z,99923.81
2022-12-16T08:12:37.419Z,99914.28
2022-12-16T08:17:57.411Z,99922.19
2022-12-16T08:23:17.426Z,99922.97
2022-12-16T08:28:37.225Z,99928.91
2022-12-16T08:33:57.200Z,99941.44
2022-12-16T08:39:17.116Z,99954.81
2022-12-16T08:44:36.954Z,99956.47
2022-12-16T08:49:59.903Z,99968.19
2022-12-16T08:55:27.772Z,99972.38
2022-12-16T09:00:49.445Z,99977.38
2022-12-16T09:06:09.331Z,99985.66
2022-12-16T09:11:29.331Z,99985.44
2022-12-16T09:16:49.308Z,99991.84
2022-12-16T09:22:09.256Z,100003.31
2022-12-16T09:27:29.131Z,100004.16
2022-12-16T09:32:49.155Z,99998.88
2022-12-16T09:38:09.544Z,100014.06
2022-12-16T09:43:41.732Z,100023.19
2022-12-16T09:49:25.207Z,100023.88
2022-12-16T09:54:48.126Z,100032.53
2022-12-16T10:00:19.685Z,100035.03
2022-12-16T10:05:52.049Z,100034.19
2022-12-16T10:11:26.155Z,100045.00
2022-12-16T10:17:04.505Z,100035.00
2022-12-16T10:22:33.235Z,100035.00
2022-12-16T10:28:00.771Z,100043.34
2022-12-16T10:33:21.254Z,100038.31
2022-12-16T10:38:55.649Z,100033.38
2022-12-16T10:44:17.624Z,100035.91
2022-12-16T10:49:38.696Z,100026.69
2022-12-16T10:55:05.102Z,100041.69
2022-12-16T11:00:55.986Z,100046.69
2022-12-16T11:06:18.969Z,100057.38
2022-12-16T11:11:49.976Z,100055.44
2022-12-16T11:17:32.704Z,100060.78
2022-12-16T11:22:52.337Z,100060.06
2022-12-16T11:28:35.319Z,100061.00
2022-12-16T11:33:55.672Z,100061.44
2022-12-16T11:39:16.340Z,100063.22
2022-12-16T11:44:38.507Z,100070.94
2022-12-16T11:49:58.848Z,100058.88
2022-12-16T11:55:48.155Z,100067.59
2022-12-16T12:01:16.589Z,100071.47
2022-12-16T12:07:02.634Z,100076.03
2022-12-16T12:12:41.532Z,100084.16
2022-12-16T12:18:39.272Z,100087.34
2022-12-16T12:24:16.085Z,100099.34
2022-12-16T12:29:45.588Z,100098.66
2022-12-16T12:35:27.129Z,100104.53
2022-12-16T12:40:46.991Z,100108.13
2022-12-16T12:46:15.858Z,100111.59
2022-12-16T12:52:17.973Z,100107.41
2022-12-16T12:57:44.606Z,100107.47
2022-12-16T13:03:14.341Z,100121.88
2022-12-16T13:08:55.996Z,100126.13
2022-12-16T13:14:16.299Z,100131.91
2022-12-16T13:19:48.235Z,100133.72
2022-12-16T13:25:09.751Z,100139.63
2022-12-16T13:30:29.513Z,100149.69
2022-12-16T13:35:49.821Z,100157.22
2022-12-16T13:41:17.959Z,100159.69
2022-12-16T13:46:37.684Z,100174.78
2022-12-16T13:51:57.636Z,100180.66
2022-12-16T13:57:19.445Z,100182.28
2022-12-16T14:03:10.136Z,100189.75
2022-12-16T14:08:35.577Z,100199.75
2022-12-16T14:14:20.908Z,100212.34
2022-12-16T14:19:59.798Z,100224.09
2022-12-16T14:25:32.371Z,100225.75
2022-12-16T14:30:52.705Z,100237.47
2022-12-16T14:36:12.723Z,100250.81
2022-12-16T14:41:36.628Z,100250.81
2022-12-16T14:46:57.148Z,100264.03
2022-12-16T14:52:16.935Z,100268.97
2022-12-16T14:57:39.344Z,100267.19
2022-12-16T15:03:04.870Z,100276.28
2022-12-16T15:08:30.135Z,100284.53
2022-12-16T15:13:55.738Z,100292.91
2022-12-16T15:19:20.909Z,100301.19
2022-12-16T15:24:43.673Z,100307.00
2022-12-16T15:30:04.182Z,100318.75
2022-12-16T15:35:24.299Z,100322.22
2022-12-16T15:40:49.191Z,100338.94
2022-12-16T15:46:10.056Z,100345.69
2022-12-16T15:51:50.535Z,100355.59
2022-12-16T15:57:10.496Z,100367.13
2022-12-16T16:02:39.237Z,100381.25
2022-12-16T16:08:03.804Z,100377.13
2022-12-16T16:13:27.288Z,100378.00
2022-12-16T16:18:47.241Z,100396.31
2022-12-16T16:24:07.048Z,100407.16
2022-12-16T16:29:29.594Z,100404.66
2022-12-16T16:34:49.943Z,100417.25
2022-12-16T16:40:09.930Z,100414.03
2022-12-16T16:45:30.266Z,100416.53
2022-12-16T16:50:50.126Z,100434.88
2022-12-16T16:56:18.126Z,100439.16
2022-12-16T17:01:39.844Z,100443.34
2022-12-16T17:07:00.009Z,100449.91
2022-12-16T17:12:19.826Z,100459.78
2022-12-16T17:17:39.660Z,100462.13
2022-12-16T17:22:59.869Z,100467.78
2022-12-16T17:28:20.763Z,100470.97
2022-12-16T17:33:40.632Z,100474.25
2022-12-16T17:39:02.574Z,100486.78
2022-12-16T17:44:23.009Z,100489.47
2022-12-16T17:49:42.873Z,100504.72
2022-12-16T17:55:02.710Z,100509.78
2022-12-16T18:00:23.068Z,100513.09
2022-12-16T18:05:44.847Z,100519.09
2022-12-16T18:11:04.848Z,100525.91
2022-12-16T18:16:24.931Z,100533.47
2022-12-16T18:21:45.027Z,100539.31
2022-12-16T18:27:04.890Z,100543.53
2022-12-16T18:32:24.800Z,100547.69
2022-12-16T18:37:44.763Z,100555.09
2022-12-16T18:43:04.936Z,100565.00
2022-12-16T18:48:24.785Z,100570.78
2022-12-16T18:53:44.707Z,100580.69
2022-12-16T18:59:04.514Z,100577.19
2022-12-16T19:04:24.400Z,100582.09
2022-12-16T19:09:44.759Z,100594.44
2022-12-16T19:15:04.843Z,100604.34
2022-12-16T19:20:29.925Z,100608.34
2022-12-16T19:26:03.318Z,100618.16
2022-12-16T19:31:28.133Z,100628.88
2022-12-16T19:36:51.048Z,100632.09
2022-12-16T19:42:11.885Z,100633.47
2022-12-16T19:47:31.720Z,100647.41
2022-12-16T19:52:51.729Z,100642.34
2022-12-16T19:58:11.659Z,100656.50
2022-12-16T20:03:35.670Z,100679.69
2022-12-16T20:08:55.840Z,100676.88
2022-12-16T20:14:16.131Z,100679.03
2022-12-16T20:19:37.434Z,100683.88
2022-12-16T20:24:59.065Z,100687.22
2022-12-16T20:30:19.005Z,100700.38
2022-12-16T20:35:38.897Z,100695.00
2022-12-16T20:40:58.679Z,100711.09
2022-12-16T20:46:18.567Z,100719.66
2022-12-16T20:51:38.721Z,100725.00
2022-12-16T20:56:58.656Z,100729.66
2022-12-16T21:02:31.635Z,100740.13
2022-12-16T21:07:53.892Z,100744.66
2022-12-16T21:13:13.800Z,100756.63
2022-12-16T21:18:33.629Z,100777.09
2022-12-16T21:23:53.526Z,100774.34
2022-12-16T21:29:13.478Z,100771.59
2022-12-16T21:34:33.309Z,100775.59
2022-12-16T21:39:54.750Z,100787.91
2022-12-16T21:45:29.555Z,100804.31
2022-12-16T21:50:50.084Z,100809.69
2022-12-16T21:56:11.455Z,100822.44
2022-12-16T22:01:31.477Z,100830.41
2022-12-16T22:06:51.535Z,100841.06
2022-12-16T22:12:11.928Z,100850.00
2022-12-16T22:17:31.788Z,100863.84
2022-12-16T22:22:51.749Z,100862.03
2022-12-16T22:28:11.803Z,100873.63
2022-12-16T22:33:31.635Z,100870.94
2022-12-16T22:38:52.537Z,100878.97
2022-12-16T22:44:12.490Z,100894.56
2022-12-16T22:49:33.058Z,100892.72
2022-12-16T22:54:53.338Z,100908.19
2022-12-16T23:00:13.285Z,100903.81
2022-12-16T23:05:33.076Z,100909.44
2022-12-16T23:10:52.992Z,100915.22
2022-12-16T23:16:17.019Z,100913.53
2022-12-16T23:21:38.196Z,100926.41
2022-12-16T23:26:58.214Z,100936.06
2022-12-16T23:32:18.299Z,100927.94
2022-12-16T23:37:38.211Z,100936.91
2022-12-16T23:42:57.920Z,100937.34
2022-12-16T23:48:27.403Z,100942.63
2022-12-16T23:53:47.107Z,100946.28
2022-12-16T23:59:07.491Z,100956.09
